createdAt,value
2023-08-06T00:02:04.460Z,2.05
2023-08-06T00:04:31.167Z,2.00
2023-08-06T00:06:57.811Z,2.70
2023-08-06T00:09:24.525Z,2.30
2023-08-06T00:11:51.395Z,2.17
2023-08-06T00:14:18.563Z,2.20
2023-08-06T00:16:46.342Z,2.22
2023-08-06T00:19:13.394Z,2.33
2023-08-06T00:21:40.160Z,2.50
2023-08-06T00:24:06.836Z,3.60
2023-08-06T00:26:33.487Z,2.33
2023-08-06T00:29:00.048Z,1.92
2023-08-06T00:31:26.700Z,2.28
2023-08-06T00:33:53.357Z,2.00
2023-08-06T00:36:20.099Z,2.00
2023-08-06T00:38:46.742Z,2.35
2023-08-06T00:41:13.330Z,2.00
2023-08-06T00:43:39.900Z,2.30
2023-08-06T00:46:06.694Z,2.05
2023-08-06T00:48:33.693Z,1.67
2023-08-06T00:51:01.317Z,1.90
2023-08-06T00:53:27.946Z,2.55
2023-08-06T00:55:54.877Z,1.75
2023-08-06T00:58:21.695Z,1.40
2023-08-06T01:00:48.643Z,1.95
2023-08-06T01:03:15.509Z,1.80
2023-08-06T01:05:42.118Z,1.40
2023-08-06T01:08:40.390Z,2.63
2023-08-06T01:13:59.374Z,1.73
2023-08-06T01:16:27.043Z,1.70
2023-08-06T01:18:55.410Z,1.67
2023-08-06T01:21:22.017Z,1.50
2023-08-06T01:23:49.447Z,1.27
2023-08-06T01:26:25.900Z,1.38
2023-08-06T01:29:11.238Z,1.50
2023-08-06T01:31:44.387Z,1.33
2023-08-06T01:34:26.777Z,1.50
2023-08-06T01:36:53.828Z,2.47
2023-08-06T01:39:23.239Z,1.67
2023-08-06T01:41:50.192Z,1.50
2023-08-06T01:44:17.598Z,1.17
2023-08-06T01:46:44.308Z,1.77
2023-08-06T01:49:10.955Z,1.92
2023-08-06T01:51:37.612Z,1.70
2023-08-06T01:54:04.554Z,1.80
2023-08-06T01:56:31.206Z,1.60
2023-08-06T01:58:57.873Z,1.50
2023-08-06T02:01:24.492Z,1.30
2023-08-06T02:03:51.163Z,1.70
2023-08-06T02:06:17.749Z,1.80
2023-08-06T02:08:44.330Z,2.45
2023-08-06T02:11:10.875Z,1.63
2023-08-06T02:13:37.448Z,1.40
2023-08-06T02:16:04.166Z,1.77
2023-08-06T02:18:30.808Z,2.15
2023-08-06T02:21:01.275Z,2.03
2023-08-06T02:23:28.375Z,1.60
2023-08-06T02:26:06.062Z,1.80
2023-08-06T02:28:33.536Z,1.80
2023-08-06T02:31:00.344Z,1.83
2023-08-06T02:33:27.230Z,2.15
2023-08-06T02:36:01.223Z,1.83
2023-08-06T02:38:28.021Z,1.95
2023-08-06T02:40:54.581Z,1.60
2023-08-06T02:43:21.159Z,1.70
2023-08-06T02:45:47.891Z,1.73
2023-08-06T02:48:14.526Z,1.45
2023-08-06T02:50:42.102Z,1.77
2023-08-06T02:53:09.574Z,1.90
2023-08-06T02:55:36.438Z,1.90
2023-08-06T02:58:03.425Z,1.75
2023-08-06T03:00:29.994Z,1.27
2023-08-06T03:02:56.679Z,1.60
2023-08-06T03:05:23.362Z,1.75
2023-08-06T03:07:50.114Z,1.63
2023-08-06T03:10:16.873Z,1.60
2023-08-06T03:12:43.592Z,1.88
2023-08-06T03:15:10.587Z,2.20
2023-08-06T03:17:37.274Z,1.85
2023-08-06T03:20:04.573Z,1.60
2023-08-06T03:22:31.255Z,2.03
2023-08-06T03:24:57.990Z,1.52
2023-08-06T03:27:24.748Z,1.73
2023-08-06T03:29:51.534Z,1.50
2023-08-06T03:32:18.224Z,1.45
2023-08-06T03:34:44.954Z,1.85
2023-08-06T03:37:11.623Z,2.17
2023-08-06T03:39:38.264Z,2.20
2023-08-06T03:42:05.033Z,1.70
2023-08-06T03:44:32.069Z,1.98
2023-08-06T03:46:58.770Z,1.65
2023-08-06T03:49:25.372Z,2.10
2023-08-06T03:51:52.372Z,1.77
2023-08-06T03:54:19.258Z,2.03
2023-08-06T03:56:46.430Z,2.50
2023-08-06T03:59:13.058Z,1.75
2023-08-06T04:01:39.815Z,1.85
2023-08-06T04:04:06.418Z,2.10
2023-08-06T04:06:32.993Z,1.95
2023-08-06T04:08:59.602Z,2.17
2023-08-06T04:11:26.189Z,1.67
2023-08-06T04:13:52.852Z,2.17
2023-08-06T04:16:19.583Z,1.80
2023-08-06T04:18:46.985Z,2.00
2023-08-06T04:21:13.627Z,2.03
2023-08-06T04:23:40.318Z,2.25
2023-08-06T04:26:06.932Z,1.90
2023-08-06T04:28:33.532Z,2.13
2023-08-06T04:31:00.917Z,1.48
2023-08-06T04:33:27.645Z,2.50
2023-08-06T04:35:58.107Z,2.05
2023-08-06T04:38:26.427Z,2.00
2023-08-06T04:40:53.752Z,2.10
2023-08-06T04:43:20.545Z,2.10
2023-08-06T04:45:51.222Z,2.00
2023-08-06T04:48:18.503Z,1.83
2023-08-06T04:50:49.178Z,1.70
2023-08-06T04:53:16.105Z,1.80
2023-08-06T04:55:43.446Z,2.42
2023-08-06T04:58:13.985Z,2.05
2023-08-06T05:00:40.708Z,1.80
2023-08-06T05:03:07.781Z,1.80
2023-08-06T05:05:34.452Z,1.92
2023-08-06T05:08:01.435Z,1.60
2023-08-06T05:10:28.837Z,1.50
2023-08-06T05:12:55.817Z,1.92
2023-08-06T05:15:22.512Z,2.58
2023-08-06T05:17:49.162Z,2.60
2023-08-06T05:20:16.004Z,2.83
2023-08-06T05:22:42.701Z,2.05
2023-08-06T05:25:09.621Z,1.80
2023-08-06T05:27:36.247Z,2.13
2023-08-06T05:30:02.892Z,2.67
2023-08-06T05:32:29.590Z,1.95
2023-08-06T05:34:56.216Z,1.60
2023-08-06T05:37:22.854Z,2.40
2023-08-06T05:39:50.698Z,2.60
2023-08-06T05:42:17.450Z,2.58
2023-08-06T05:44:44.242Z,1.88
2023-08-06T05:47:10.866Z,3.20
2023-08-06T05:49:37.606Z,2.90
2023-08-06T05:52:07.329Z,2.65
2023-08-06T05:54:34.026Z,2.63
2023-08-06T05:57:00.587Z,2.45
2023-08-06T05:59:27.202Z,3.17
2023-08-06T06:01:54.048Z,2.55
2023-08-06T06:04:20.902Z,3.03
2023-08-06T06:06:48.824Z,3.40
2023-08-06T06:09:15.428Z,2.38
2023-08-06T06:11:42.029Z,2.42
2023-08-06T06:14:08.630Z,3.05
2023-08-06T06:16:35.813Z,2.50
2023-08-06T06:19:02.448Z,2.87
2023-08-06T06:21:29.167Z,3.42
2023-08-06T06:23:55.945Z,2.80
2023-08-06T06:26:22.529Z,2.72
2023-08-06T06:28:49.162Z,3.20
2023-08-06T06:31:15.838Z,3.40
2023-08-06T06:33:42.416Z,2.83
2023-08-06T06:36:09.015Z,2.90
2023-08-06T06:38:35.946Z,2.53
2023-08-06T06:41:04.492Z,2.40
2023-08-06T06:43:33.802Z,2.90
2023-08-06T06:46:01.322Z,3.00
2023-08-06T06:48:32.761Z,2.95
2023-08-06T06:51:00.223Z,2.20
2023-08-06T06:53:29.920Z,2.58
2023-08-06T06:56:04.216Z,3.13
2023-08-06T06:58:31.512Z,3.10
2023-08-06T07:00:59.034Z,2.70
2023-08-06T07:03:26.017Z,2.70
2023-08-06T07:05:52.791Z,2.53
2023-08-06T07:08:19.645Z,2.85
2023-08-06T07:10:46.553Z,2.35
2023-08-06T07:13:17.733Z,2.87
2023-08-06T07:15:44.384Z,3.10
2023-08-06T07:18:11.355Z,2.92
2023-08-06T07:20:38.390Z,2.50
2023-08-06T07:23:06.583Z,3.63
2023-08-06T07:25:35.294Z,3.00
2023-08-06T07:28:03.544Z,3.53
2023-08-06T07:30:30.227Z,2.78
2023-08-06T07:32:56.977Z,2.80
2023-08-06T07:35:23.784Z,2.90
2023-08-06T07:37:50.547Z,2.50
2023-08-06T07:40:17.413Z,3.17
2023-08-06T07:42:44.236Z,3.73
2023-08-06T07:45:11.051Z,2.33
2023-08-06T07:47:38.446Z,2.92
2023-08-06T07:50:06.994Z,3.50
2023-08-06T07:52:33.987Z,3.30
2023-08-06T07:55:07.089Z,3.15
2023-08-06T07:57:35.059Z,3.33
2023-08-06T08:00:02.406Z,2.97
2023-08-06T08:02:29.163Z,3.33
2023-08-06T08:04:55.711Z,3.50
2023-08-06T08:07:22.272Z,3.00
2023-08-06T08:09:49.685Z,3.40
2023-08-06T08:14:42.822Z,3.28
2023-08-06T08:17:09.461Z,2.83
2023-08-06T08:19:36.026Z,4.17
2023-08-06T08:22:02.583Z,4.53
2023-08-06T08:24:29.241Z,3.93
2023-08-06T08:26:55.820Z,3.88
2023-08-06T08:29:22.649Z,3.90
2023-08-06T08:31:51.206Z,3.65
2023-08-06T08:34:18.342Z,3.83
2023-08-06T08:36:49.503Z,2.55
2023-08-06T08:39:16.236Z,3.42
2023-08-06T08:41:43.432Z,3.63
2023-08-06T08:44:11.806Z,3.45
2023-08-06T08:46:42.909Z,3.03
2023-08-06T08:49:09.705Z,2.75
2023-08-06T08:51:36.975Z,3.00
2023-08-06T08:56:36.214Z,3.00
2023-08-06T08:59:03.270Z,2.13
2023-08-06T09:01:30.248Z,3.05
2023-08-06T09:03:58.302Z,2.85
2023-08-06T09:06:28.228Z,2.53
2023-08-06T09:09:18.205Z,2.47
2023-08-06T09:11:45.659Z,1.85
2023-08-06T09:16:39.800Z,2.50
2023-08-06T09:19:19.621Z,2.70
2023-08-06T09:21:49.739Z,1.90
2023-08-06T09:24:16.926Z,2.35
2023-08-06T09:26:45.725Z,1.98
2023-08-06T09:29:13.135Z,2.00
2023-08-06T09:31:51.858Z,2.42
2023-08-06T09:34:23.385Z,2.30
2023-08-06T09:36:54.898Z,2.00
2023-08-06T09:39:29.570Z,1.58
2023-08-06T09:42:00.997Z,1.83
2023-08-06T09:44:29.030Z,1.75
2023-08-06T09:46:57.636Z,1.40
2023-08-06T09:49:29.216Z,1.75
2023-08-06T09:51:59.452Z,1.80
2023-08-06T09:54:28.482Z,1.60
2023-08-06T09:56:56.225Z,1.45
2023-08-06T09:59:24.702Z,1.60
2023-08-06T10:01:52.074Z,1.80
2023-08-06T10:04:24.080Z,1.58
2023-08-06T10:06:52.160Z,1.70
2023-08-06T10:09:19.753Z,1.75
2023-08-06T10:11:51.703Z,2.25
2023-08-06T10:14:27.400Z,1.38
2023-08-06T10:16:55.704Z,1.80
2023-08-06T10:19:22.928Z,1.70
2023-08-06T10:22:12.346Z,1.45
2023-08-06T10:24:52.366Z,1.85
2023-08-06T10:27:33.257Z,2.30
2023-08-06T10:30:24.906Z,1.80
2023-08-06T10:32:53.751Z,5.28
2023-08-06T10:35:41.654Z,4.88
2023-08-06T10:38:09.472Z,9.50
2023-08-06T10:41:03.014Z,3.80
2023-08-06T10:43:39.058Z,3.42
2023-08-06T10:46:11.269Z,4.20
2023-08-06T10:48:42.514Z,5.13
2023-08-06T10:51:14.380Z,2.15
2023-08-06T10:53:48.797Z,3.05
2023-08-06T10:56:29.069Z,7.10
2023-08-06T10:58:57.672Z,1.92
2023-08-06T11:01:25.046Z,1.90
2023-08-06T11:03:54.309Z,1.98
2023-08-06T11:06:22.513Z,1.55
2023-08-06T11:08:54.144Z,1.92
2023-08-06T11:11:21.907Z,1.60
2023-08-06T11:13:53.627Z,1.52
2023-08-06T11:16:22.936Z,1.70
2023-08-06T11:18:49.848Z,1.73
2023-08-06T11:21:20.538Z,1.58
2023-08-06T11:23:47.162Z,1.63
2023-08-06T11:26:15.773Z,1.35
2023-08-06T11:28:43.643Z,1.48
2023-08-06T11:31:20.184Z,1.67
2023-08-06T11:33:46.896Z,1.60
2023-08-06T11:36:13.554Z,2.03
2023-08-06T11:38:40.200Z,1.45
2023-08-06T11:41:08.076Z,1.55
2023-08-06T11:46:01.485Z,1.45
2023-08-06T11:48:28.182Z,1.60
2023-08-06T11:50:58.977Z,2.17
2023-08-06T11:53:30.265Z,1.75
2023-08-06T11:55:57.055Z,1.98
2023-08-06T11:58:23.800Z,1.10
2023-08-06T12:00:50.522Z,1.83
2023-08-06T12:03:20.315Z,1.70
2023-08-06T12:05:48.262Z,1.90
2023-08-06T12:10:41.375Z,1.52
2023-08-06T12:13:07.992Z,1.80
2023-08-06T12:15:34.538Z,2.08
2023-08-06T12:18:01.241Z,1.85
2023-08-06T12:20:29.545Z,1.73
2023-08-06T12:22:56.195Z,0.88
2023-08-06T12:25:22.863Z,1.27
2023-08-06T12:27:50.400Z,1.10
2023-08-06T12:30:17.080Z,1.20
2023-08-06T12:32:43.841Z,1.15
2023-08-06T12:35:10.504Z,1.20
2023-08-06T12:37:39.786Z,1.02
2023-08-06T12:40:33.251Z,1.10
2023-08-06T12:42:56.132Z,2.15
2023-08-06T12:45:23.299Z,1.00
2023-08-06T12:47:50.972Z,1.02
2023-08-06T12:50:18.554Z,1.50
2023-08-06T12:52:45.751Z,0.93
2023-08-06T12:55:12.574Z,1.10
2023-08-06T12:57:51.928Z,1.10
2023-08-06T13:00:22.570Z,1.17
2023-08-06T13:02:49.729Z,1.30
2023-08-06T13:05:16.445Z,1.17
2023-08-06T13:07:43.363Z,1.50
2023-08-06T13:10:10.150Z,1.27
2023-08-06T13:12:36.946Z,0.80
2023-08-06T13:15:03.835Z,0.75
2023-08-06T13:17:30.504Z,0.73
2023-08-06T13:19:57.248Z,0.90
2023-08-06T13:22:23.867Z,0.90
2023-08-06T13:24:50.453Z,1.10
2023-08-06T13:27:17.073Z,1.10
2023-08-06T13:29:43.653Z,1.30
2023-08-06T13:32:10.292Z,1.20
2023-08-06T13:34:36.933Z,1.20
2023-08-06T13:37:03.694Z,0.90
2023-08-06T13:39:30.320Z,0.98
2023-08-06T13:41:56.909Z,1.00
2023-08-06T13:44:23.603Z,0.80
2023-08-06T13:46:50.199Z,0.85
2023-08-06T13:49:16.873Z,1.00
2023-08-06T13:51:43.499Z,1.10
2023-08-06T13:54:10.104Z,0.82
2023-08-06T13:56:38.737Z,1.10
2023-08-06T13:59:05.700Z,0.93
2023-08-06T14:01:47.360Z,0.90
2023-08-06T14:04:17.637Z,1.08
2023-08-06T14:06:44.333Z,1.42
2023-08-06T14:09:13.495Z,1.33
2023-08-06T14:11:40.378Z,0.98
2023-08-06T14:14:06.962Z,0.90
2023-08-06T14:16:33.601Z,1.20
2023-08-06T14:19:00.236Z,0.90
2023-08-06T14:21:26.808Z,1.40
2023-08-06T14:23:53.381Z,1.15
2023-08-06T14:26:20.106Z,1.35
2023-08-06T14:28:46.906Z,1.33
2023-08-06T14:31:13.703Z,1.02
2023-08-06T14:33:40.388Z,1.55
2023-08-06T14:36:07.057Z,1.00
2023-08-06T14:38:35.321Z,1.00
2023-08-06T14:41:07.603Z,0.98
2023-08-06T14:43:34.356Z,1.45
2023-08-06T14:46:01.028Z,1.10
2023-08-06T14:48:27.739Z,1.17
2023-08-06T14:50:55.687Z,1.40
2023-08-06T14:53:22.484Z,0.90
2023-08-06T14:55:49.273Z,0.80
2023-08-06T14:58:15.943Z,0.90
2023-08-06T15:00:42.934Z,1.10
2023-08-06T15:03:09.615Z,1.05
2023-08-06T15:05:36.237Z,1.20
2023-08-06T15:08:02.853Z,1.00
2023-08-06T15:10:29.516Z,0.90
2023-08-06T15:12:56.473Z,0.95
2023-08-06T15:15:25.921Z,1.10
2023-08-06T15:17:53.518Z,1.15
2023-08-06T15:20:20.380Z,0.88
2023-08-06T15:22:46.988Z,1.13
2023-08-06T15:25:13.638Z,0.90
2023-08-06T15:27:41.131Z,1.20
2023-08-06T15:30:08.765Z,0.82
2023-08-06T15:32:35.435Z,1.13
2023-08-06T15:35:02.146Z,0.90
2023-08-06T15:37:28.956Z,0.98
2023-08-06T15:39:55.595Z,1.08
2023-08-06T15:42:22.196Z,1.02
2023-08-06T15:44:49.057Z,1.10
2023-08-06T15:47:15.700Z,0.98
2023-08-06T15:49:42.309Z,1.67
2023-08-06T15:52:08.919Z,1.33
2023-08-06T15:54:35.511Z,1.02
2023-08-06T15:57:02.250Z,1.10
2023-08-06T15:59:31.112Z,0.90
2023-08-06T16:02:05.474Z,0.93
2023-08-06T16:04:32.509Z,1.10
2023-08-06T16:07:00.137Z,1.00
2023-08-06T16:09:26.938Z,1.10
2023-08-06T16:11:54.699Z,0.95
2023-08-06T16:14:21.724Z,1.23
2023-08-06T16:16:48.531Z,1.00
2023-08-06T16:19:15.205Z,1.00
2023-08-06T16:21:42.073Z,1.20
2023-08-06T16:24:08.934Z,1.20
2023-08-06T16:26:36.889Z,1.10
2023-08-06T16:29:04.221Z,1.45
2023-08-06T16:31:31.138Z,0.90
2023-08-06T16:33:57.860Z,0.82
2023-08-06T16:36:26.156Z,2.10
2023-08-06T16:38:52.827Z,1.60
2023-08-06T16:41:19.626Z,0.95
2023-08-06T16:43:50.397Z,1.70
2023-08-06T16:46:17.198Z,1.13
2023-08-06T16:48:44.805Z,1.38
2023-08-06T16:51:14.251Z,0.90
2023-08-06T16:53:40.862Z,1.17
2023-08-06T16:56:07.698Z,1.15
2023-08-06T16:58:34.315Z,1.10
2023-08-06T17:01:06.128Z,1.10
2023-08-06T17:03:34.586Z,1.50
2023-08-06T17:06:04.840Z,1.63
2023-08-06T17:08:37.639Z,1.15
2023-08-06T17:11:04.549Z,1.50
2023-08-06T17:13:31.412Z,1.20
2023-08-06T17:15:59.388Z,1.02
2023-08-06T17:18:26.700Z,1.40
2023-08-06T17:20:53.814Z,1.20
2023-08-06T17:23:20.478Z,1.15
2023-08-06T17:25:47.194Z,1.60
2023-08-06T17:28:14.705Z,1.75
2023-08-06T17:30:42.815Z,1.20
2023-08-06T17:33:13.273Z,1.00
2023-08-06T17:35:44.100Z,1.13
2023-08-06T17:38:13.916Z,1.05
2023-08-06T17:40:40.868Z,1.50
2023-08-06T17:43:07.907Z,1.25
2023-08-06T17:45:34.604Z,1.70
2023-08-06T17:48:01.774Z,1.40
2023-08-06T17:50:28.465Z,1.23
2023-08-06T17:52:55.181Z,1.20
2023-08-06T17:55:23.320Z,0.90
2023-08-06T17:57:49.973Z,1.15
2023-08-06T18:00:16.598Z,0.95
2023-08-06T18:02:43.312Z,1.40
2023-08-06T18:05:11.409Z,1.10
2023-08-06T18:07:38.620Z,1.00
2023-08-06T18:10:05.923Z,1.35
2023-08-06T18:12:32.544Z,1.30
2023-08-06T18:14:59.286Z,1.13
2023-08-06T18:17:25.960Z,2.15
2023-08-06T18:19:52.596Z,1.20
2023-08-06T18:22:19.199Z,1.33
2023-08-06T18:24:45.833Z,1.27
2023-08-06T18:27:18.155Z,1.58
2023-08-06T18:29:45.659Z,1.02
2023-08-06T18:32:12.412Z,1.80
2023-08-06T18:34:39.739Z,1.27
2023-08-06T18:37:07.246Z,1.40
2023-08-06T18:39:33.940Z,1.47
2023-08-06T18:42:00.562Z,1.20
2023-08-06T18:44:27.194Z,2.55
2023-08-06T18:46:54.063Z,1.70
2023-08-06T18:49:20.860Z,1.83
2023-08-06T18:51:47.484Z,1.90
2023-08-06T18:54:14.083Z,1.25
2023-08-06T18:56:40.699Z,1.48
2023-08-06T18:59:07.839Z,1.10
2023-08-06T19:01:34.636Z,1.50
2023-08-06T19:04:20.146Z,1.33
2023-08-06T19:06:47.561Z,1.48
2023-08-06T19:09:15.929Z,1.63
2023-08-06T19:11:42.671Z,1.23
2023-08-06T19:14:09.746Z,1.20
2023-08-06T19:16:37.567Z,1.13
2023-08-06T19:19:04.341Z,1.20
2023-08-06T19:21:30.998Z,1.33
2023-08-06T19:23:58.692Z,1.08
2023-08-06T19:26:25.430Z,1.25
2023-08-06T19:28:52.050Z,1.08
2023-08-06T19:31:18.716Z,1.15
2023-08-06T19:33:45.420Z,0.73
2023-08-06T19:36:12.032Z,1.10
2023-08-06T19:38:38.744Z,1.10
2023-08-06T19:41:10.767Z,0.95
2023-08-06T19:43:37.515Z,1.33
2023-08-06T19:46:05.253Z,1.17
2023-08-06T19:48:34.204Z,1.15
2023-08-06T19:51:02.078Z,2.15
2023-08-06T19:53:31.231Z,1.00
2023-08-06T19:56:02.833Z,1.05
2023-08-06T19:58:32.088Z,1.13
2023-08-06T20:03:27.670Z,1.52
2023-08-06T20:05:54.590Z,0.88
2023-08-06T20:08:21.236Z,0.80
2023-08-06T20:10:48.856Z,0.93
2023-08-06T20:13:16.061Z,0.80
2023-08-06T20:15:43.550Z,1.00
2023-08-06T20:18:12.953Z,0.80
2023-08-06T20:20:41.711Z,1.10
2023-08-06T20:23:08.314Z,1.20
2023-08-06T20:25:35.331Z,1.10
2023-08-06T20:28:03.212Z,1.00
2023-08-06T20:30:29.947Z,0.90
2023-08-06T20:32:56.592Z,0.75
2023-08-06T20:35:23.564Z,1.23
2023-08-06T20:37:50.129Z,1.02
2023-08-06T20:40:16.773Z,1.20
2023-08-06T20:42:44.649Z,1.27
2023-08-06T20:45:11.329Z,0.73
2023-08-06T20:47:38.027Z,3.30
2023-08-06T20:50:05.103Z,1.00
2023-08-06T20:52:31.800Z,1.30
2023-08-06T20:54:58.488Z,0.82
2023-08-06T20:57:25.060Z,1.10
2023-08-06T20:59:51.786Z,0.98
2023-08-06T21:02:19.889Z,1.33
2023-08-06T21:04:49.976Z,1.27
2023-08-06T21:07:17.067Z,1.20
2023-08-06T21:09:43.730Z,0.90
2023-08-06T21:12:10.389Z,0.60
2023-08-06T21:14:37.207Z,0.90
2023-08-06T21:17:04.162Z,1.30
2023-08-06T21:19:30.912Z,0.93
2023-08-06T21:21:57.699Z,1.17
2023-08-06T21:24:24.493Z,1.23
2023-08-06T21:26:51.062Z,1.20
2023-08-06T21:29:17.679Z,1.35
2023-08-06T21:31:47.382Z,0.95
2023-08-06T21:34:13.994Z,2.33
2023-08-06T21:36:40.972Z,3.58
2023-08-06T21:39:07.626Z,1.38
2023-08-06T21:41:34.237Z,1.92
2023-08-06T21:44:00.859Z,2.45
2023-08-06T21:46:27.894Z,1.92
2023-08-06T21:48:54.671Z,1.77
2023-08-06T21:51:21.974Z,0.90
2023-08-06T21:53:49.040Z,1.30
2023-08-06T21:56:16.736Z,0.70
2023-08-06T21:58:48.822Z,1.00
2023-08-06T22:01:16.615Z,1.05
2023-08-06T22:03:46.861Z,1.43
2023-08-06T22:06:13.809Z,1.05
2023-08-06T22:08:42.040Z,2.30
2023-08-06T22:11:09.208Z,1.15
2023-08-06T22:13:38.922Z,0.80
2023-08-06T22:16:06.763Z,0.93
2023-08-06T22:18:33.904Z,0.90
2023-08-06T22:21:00.686Z,1.10
2023-08-06T22:23:27.512Z,1.10
2023-08-06T22:25:54.426Z,0.98
2023-08-06T22:28:22.836Z,0.82
2023-08-06T22:30:49.969Z,0.82
2023-08-06T22:33:18.778Z,0.98
2023-08-06T22:35:45.887Z,0.98
2023-08-06T22:38:12.530Z,0.60
2023-08-06T22:40:39.162Z,0.90
2023-08-06T22:43:05.724Z,1.20
2023-08-06T22:45:32.378Z,0.80
2023-08-06T22:48:00.444Z,0.73
2023-08-06T22:50:27.237Z,0.90
2023-08-06T22:52:56.079Z,0.80
2023-08-06T22:55:48.179Z,0.82
2023-08-06T22:58:09.721Z,1.05
2023-08-06T23:00:36.397Z,0.70
2023-08-06T23:03:10.208Z,0.85
2023-08-06T23:05:39.623Z,0.60
2023-08-06T23:08:06.539Z,0.90
2023-08-06T23:10:33.223Z,0.73
2023-08-06T23:13:00.080Z,0.85
2023-08-06T23:15:26.787Z,0.95
2023-08-06T23:17:53.563Z,0.90
2023-08-06T23:20:20.397Z,0.80
2023-08-06T23:22:47.867Z,0.70
2023-08-06T23:25:14.660Z,1.00
2023-08-06T23:27:41.320Z,0.90
2023-08-06T23:30:08.805Z,0.80
2023-08-06T23:32:36.148Z,0.73
2023-08-06T23:35:04.136Z,1.25
2023-08-06T23:37:30.846Z,1.33
2023-08-06T23:39:57.508Z,0.85
2023-08-06T23:42:24.299Z,0.68
2023-08-06T23:44:51.782Z,0.73
2023-08-06T23:47:18.657Z,0.60
2023-08-06T23:49:45.836Z,0.70
2023-08-06T23:52:12.508Z,0.75
2023-08-06T23:54:40.951Z,0.73
2023-08-06T23:59:34.155Z,1.35
